KSOW/SOW METAR and TAF weather

Enter ICAO airport designator
Station Type Date Time Source
KSOW METAR 2022/01/29 01:35 UTC NOAA

KSOW 290135Z AUTO 01004KT 10SM CLR 01/M12 A3042 RMK AO2


Station Type Date Time Source
KSOW Decoded METAR 2022/01/29 01:35 UTC NOAA

Show Low, Show Low Regional Airport, AZ, United States (KSOW) 34-15-55N 110-00-20W
Jan 28, 2022 - 08:35 PM EST / 2022.01.29 0135 UTC
Wind: from the N (010 degrees) at 5 MPH (4 KT):0
Visibility: 10 mile(s):0
Sky conditions: clear
Temperature: 33 F (1 C)
Windchill: 28 F (-2 C):1
Dew Point: 10 F (-12 C)
Relative Humidity: 37%
Pressure (altimeter): 30.42 in. Hg (1030 hPa)
ob: KSOW 290135Z AUTO 01004KT 10SM CLR 01/M12 A3042 RMK AO2
cycle: 1

Station Type Date Time Source
KSOW TAF UTC NOAA

Error!

Example: see airport list